createdAt,value
2019-02-05T00:00:58.193Z,11.03
2019-02-05T00:03:27.176Z,9.03
2019-02-05T00:05:55.927Z,7.80
2019-02-05T00:08:24.548Z,9.00
2019-02-05T00:10:53.805Z,10.00
2019-02-05T00:13:22.796Z,9.30
2019-02-05T00:15:51.668Z,8.73
2019-02-05T00:18:20.400Z,8.70
2019-02-05T00:20:49.099Z,7.80
2019-02-05T00:23:18.754Z,7.53
2019-02-05T00:25:47.113Z,10.70
2019-02-05T00:28:15.813Z,11.47
2019-02-05T00:30:44.476Z,8.83
2019-02-05T00:33:13.087Z,8.60
2019-02-05T00:35:42.775Z,9.00
2019-02-05T00:38:12.139Z,10.63
2019-02-05T00:40:41.692Z,9.80
2019-02-05T00:43:10.962Z,10.33
2019-02-05T00:45:41.552Z,9.43
2019-02-05T00:48:10.044Z,9.80
2019-02-05T00:50:38.602Z,11.33
2019-02-05T00:53:07.242Z,6.20
2019-02-05T00:55:35.819Z,10.43
2019-02-05T00:58:04.739Z,10.23
2019-02-05T01:00:34.186Z,10.93
2019-02-05T01:03:04.517Z,11.57
2019-02-05T01:05:33.388Z,11.90
2019-02-05T01:08:02.030Z,13.73
2019-02-05T01:10:31.087Z,10.93
2019-02-05T01:12:59.607Z,10.70
2019-02-05T01:15:28.300Z,12.30
2019-02-05T01:17:57.992Z,11.93
2019-02-05T01:20:26.574Z,10.63
2019-02-05T01:22:55.079Z,10.80
2019-02-05T01:25:23.842Z,11.07
2019-02-05T01:27:52.859Z,13.23
2019-02-05T01:30:23.984Z,10.20
2019-02-05T01:32:52.652Z,10.50
2019-02-05T01:35:21.501Z,13.57
2019-02-05T01:37:50.865Z,11.63
2019-02-05T01:40:21.983Z,11.50
2019-02-05T01:42:50.940Z,10.67
2019-02-05T01:45:21.633Z,11.17
2019-02-05T01:47:50.653Z,11.03
2019-02-05T01:50:24.664Z,10.67
2019-02-05T01:52:53.388Z,9.37
2019-02-05T01:55:22.341Z,10.87
2019-02-05T01:57:51.283Z,10.70
2019-02-05T02:00:26.336Z,11.10
2019-02-05T02:02:54.920Z,10.67
2019-02-05T02:05:24.029Z,10.60
2019-02-05T02:07:53.030Z,12.73
2019-02-05T02:10:24.988Z,9.37
2019-02-05T02:12:54.305Z,11.07
2019-02-05T02:15:23.125Z,11.37
2019-02-05T02:17:51.812Z,10.60
2019-02-05T02:20:20.915Z,12.93
2019-02-05T02:22:49.626Z,11.40
2019-02-05T02:25:18.699Z,9.97
2019-02-05T02:27:49.346Z,9.50
2019-02-05T02:30:27.080Z,12.70
2019-02-05T02:32:55.982Z,12.87
2019-02-05T02:35:24.435Z,12.10
2019-02-05T02:37:53.479Z,12.67
2019-02-05T02:40:21.940Z,11.57
2019-02-05T02:42:51.026Z,12.43
2019-02-05T02:45:19.713Z,12.67
2019-02-05T02:47:48.416Z,14.30
2019-02-05T02:50:17.036Z,13.80
2019-02-05T02:52:45.950Z,13.60
2019-02-05T02:55:14.909Z,12.80
2019-02-05T02:57:44.148Z,14.57
2019-02-05T03:00:16.634Z,16.33
2019-02-05T03:02:46.230Z,13.33
2019-02-05T03:05:17.616Z,14.70
2019-02-05T03:07:48.568Z,15.20
2019-02-05T03:10:23.368Z,19.20
2019-02-05T03:12:52.683Z,17.30
2019-02-05T03:15:21.809Z,12.70
2019-02-05T03:17:50.564Z,16.43
2019-02-05T03:20:18.978Z,14.87
2019-02-05T03:22:48.243Z,19.53
2019-02-05T03:25:20.219Z,18.50
2019-02-05T03:27:48.934Z,17.47
2019-02-05T03:30:19.758Z,18.73
2019-02-05T03:32:49.553Z,17.17
2019-02-05T03:35:19.567Z,19.87
2019-02-05T03:37:48.742Z,20.77
2019-02-05T03:41:05.921Z,21.17
2019-02-05T03:43:36.683Z,21.57
2019-02-05T03:46:08.383Z,19.67
2019-02-05T03:48:37.657Z,20.23
2019-02-05T03:51:49.486Z,18.90
2019-02-05T03:55:37.151Z,24.17
2019-02-05T03:59:00.448Z,21.97
2019-02-05T04:02:31.834Z,24.77
2019-02-05T04:05:57.249Z,25.07
2019-02-05T04:09:35.807Z,22.53
2019-02-05T04:12:55.941Z,25.53
2019-02-05T04:16:11.294Z,28.70
2019-02-05T04:19:45.043Z,26.87
2019-02-05T04:22:44.098Z,29.57
2019-02-05T04:26:09.084Z,27.20
2019-02-05T04:29:07.547Z,27.43
2019-02-05T04:32:19.876Z,29.80
2019-02-05T04:35:48.811Z,30.23
2019-02-05T04:39:39.672Z,31.60
2019-02-05T04:43:15.694Z,28.97
2019-02-05T04:46:26.188Z,27.90
2019-02-05T04:50:13.060Z,32.63
2019-02-05T04:53:21.447Z,30.73
2019-02-05T04:56:44.047Z,33.03
2019-02-05T05:00:27.390Z,29.90
2019-02-05T05:03:24.493Z,34.87
2019-02-05T05:07:08.444Z,29.53
2019-02-05T05:09:59.441Z,31.00
2019-02-05T05:12:30.111Z,36.50
2019-02-05T05:14:59.566Z,37.40
2019-02-05T05:17:28.422Z,35.97
2019-02-05T05:19:57.109Z,38.00
2019-02-05T05:22:26.218Z,40.97
2019-02-05T05:24:54.975Z,41.00
2019-02-05T05:27:25.133Z,40.80
2019-02-05T05:29:54.009Z,41.10
2019-02-05T05:32:22.731Z,40.20
2019-02-05T05:34:51.168Z,45.37
2019-02-05T05:37:18.338Z,41.97
2019-02-05T05:39:47.089Z,42.37
2019-02-05T05:42:15.706Z,44.73
2019-02-05T05:44:44.797Z,46.20
2019-02-05T05:47:13.395Z,49.10
2019-02-05T05:49:41.938Z,41.43
2019-02-05T05:52:10.693Z,47.47
2019-02-05T05:54:39.292Z,38.30
2019-02-05T05:57:07.979Z,41.00
2019-02-05T05:59:36.591Z,40.60
2019-02-05T06:02:05.594Z,44.03
2019-02-05T06:04:34.266Z,46.27
2019-02-05T06:07:02.984Z,43.67
2019-02-05T06:09:31.507Z,53.40
2019-02-05T06:12:00.183Z,48.87
2019-02-05T06:14:28.931Z,45.33
2019-02-05T06:16:57.682Z,47.00
2019-02-05T06:19:26.815Z,46.53
2019-02-05T06:21:55.364Z,39.67
2019-02-05T06:24:24.074Z,48.07
2019-02-05T06:26:52.651Z,49.87
2019-02-05T06:29:21.438Z,46.73
2019-02-05T06:31:50.101Z,43.43
2019-02-05T06:34:18.700Z,49.40
2019-02-05T06:36:47.239Z,46.07
2019-02-05T06:39:15.903Z,43.83
2019-02-05T06:41:44.641Z,43.83
2019-02-05T06:44:13.713Z,48.70
2019-02-05T06:46:42.273Z,46.90
2019-02-05T06:49:10.892Z,49.20
2019-02-05T06:51:39.855Z,47.67
2019-02-05T06:54:08.608Z,52.90
2019-02-05T06:56:37.185Z,49.27
2019-02-05T06:59:06.017Z,45.23
2019-02-05T07:01:34.723Z,40.30
2019-02-05T07:04:04.508Z,50.57
2019-02-05T07:06:33.274Z,45.57
2019-02-05T07:09:02.321Z,44.77
2019-02-05T07:11:30.814Z,51.10
2019-02-05T07:13:59.506Z,43.57
2019-02-05T07:16:28.003Z,37.10
2019-02-05T07:18:56.835Z,46.17
2019-02-05T07:21:25.532Z,44.17
2019-02-05T07:23:54.161Z,45.30
2019-02-05T07:26:23.298Z,41.13
2019-02-05T07:28:58.449Z,45.40
2019-02-05T07:31:22.582Z,37.83
2019-02-05T07:33:51.212Z,37.33
2019-02-05T07:36:19.898Z,34.47
2019-02-05T07:38:48.402Z,34.33
2019-02-05T07:41:17.186Z,31.73
2019-02-05T07:43:46.257Z,31.60
2019-02-05T07:46:15.017Z,32.33
2019-02-05T07:48:43.570Z,36.27
2019-02-05T07:51:12.139Z,30.33
2019-02-05T07:53:40.894Z,25.47
2019-02-05T07:56:12.820Z,27.10
2019-02-05T07:58:40.464Z,29.77
2019-02-05T08:01:09.037Z,26.80
2019-02-05T08:03:37.571Z,25.10
2019-02-05T08:06:06.102Z,25.33
2019-02-05T08:08:35.051Z,32.13
2019-02-05T08:11:04.665Z,23.90
2019-02-05T08:13:35.031Z,28.70
2019-02-05T08:16:04.143Z,22.57
2019-02-05T08:18:32.786Z,28.63
2019-02-05T08:21:02.247Z,25.83
2019-02-05T08:23:30.812Z,25.73
2019-02-05T08:25:59.393Z,32.10
2019-02-05T08:28:28.132Z,33.10
2019-02-05T08:30:56.622Z,26.93
2019-02-05T08:33:25.719Z,29.67
2019-02-05T08:35:54.214Z,24.90
2019-02-05T08:38:24.206Z,31.77
2019-02-05T08:40:52.676Z,32.53
2019-02-05T08:43:21.292Z,29.23
2019-02-05T08:45:56.658Z,26.80
2019-02-05T08:48:20.337Z,29.50
2019-02-05T08:50:48.844Z,31.23
2019-02-05T08:53:17.474Z,24.83
2019-02-05T08:55:46.239Z,28.97
2019-02-05T08:58:17.081Z,25.53
2019-02-05T09:00:46.039Z,31.87
2019-02-05T09:03:14.561Z,28.50
2019-02-05T09:05:43.094Z,32.63
2019-02-05T09:08:11.583Z,27.73
2019-02-05T09:10:40.623Z,28.97
2019-02-05T09:13:09.710Z,32.53
2019-02-05T09:15:38.536Z,29.47
2019-02-05T09:18:08.281Z,30.23
2019-02-05T09:20:37.035Z,28.53
2019-02-05T09:23:05.994Z,30.77
2019-02-05T09:25:34.591Z,29.67
2019-02-05T09:28:03.467Z,27.80
2019-02-05T09:30:33.642Z,28.80
2019-02-05T09:33:06.955Z,30.13
2019-02-05T09:35:35.738Z,27.20
2019-02-05T09:38:05.153Z,29.90
2019-02-05T09:40:34.101Z,31.60
2019-02-05T09:43:03.231Z,36.27
2019-02-05T09:45:33.140Z,34.50
2019-02-05T09:48:02.264Z,31.47
2019-02-05T09:50:43.495Z,29.67
2019-02-05T09:53:01.822Z,33.63
2019-02-05T09:55:30.300Z,31.13
2019-02-05T09:57:58.990Z,33.00
2019-02-05T10:00:37.547Z,29.03
2019-02-05T10:03:07.956Z,34.53
2019-02-05T10:05:37.025Z,32.00
2019-02-05T10:08:06.577Z,31.17
2019-02-05T10:10:35.303Z,33.30
2019-02-05T10:13:04.694Z,35.37
2019-02-05T10:15:35.490Z,29.30
2019-02-05T10:18:06.802Z,31.57
2019-02-05T10:20:35.846Z,35.53
2019-02-05T10:23:07.123Z,31.73
2019-02-05T10:25:36.358Z,33.17
2019-02-05T10:28:05.273Z,34.30
2019-02-05T10:30:43.341Z,42.17
2019-02-05T10:33:12.869Z,33.13
2019-02-05T10:35:42.039Z,34.93
2019-02-05T10:38:10.822Z,30.23
2019-02-05T10:40:39.361Z,39.17
2019-02-05T10:43:08.374Z,39.20
2019-02-05T10:45:37.438Z,40.50
2019-02-05T10:48:08.974Z,36.53
2019-02-05T10:50:37.937Z,42.30
2019-02-05T10:53:07.819Z,39.63
2019-02-05T10:55:36.484Z,49.17
2019-02-05T10:58:06.805Z,47.43
2019-02-05T11:00:35.438Z,38.73
2019-02-05T11:03:06.537Z,46.73
2019-02-05T11:05:35.853Z,39.00
2019-02-05T11:08:05.785Z,38.63
2019-02-05T11:10:34.779Z,43.83
2019-02-05T11:13:05.065Z,46.77
2019-02-05T11:15:34.273Z,49.80
2019-02-05T11:18:07.102Z,46.60
2019-02-05T11:20:35.880Z,45.23
2019-02-05T11:23:05.315Z,47.20
2019-02-05T11:25:34.539Z,46.37
2019-02-05T11:28:03.165Z,42.60
2019-02-05T11:30:42.357Z,44.23
2019-02-05T11:33:11.511Z,44.77
2019-02-05T11:35:40.106Z,37.87
2019-02-05T11:38:10.702Z,50.43
2019-02-05T11:40:40.394Z,37.63
2019-02-05T11:43:09.065Z,33.37
2019-02-05T11:45:37.817Z,32.73
2019-02-05T11:48:12.681Z,32.67
2019-02-05T11:50:41.752Z,32.47
2019-02-05T11:53:10.336Z,30.47
2019-02-05T11:55:39.539Z,34.10
2019-02-05T11:58:08.149Z,32.60
2019-02-05T12:00:59.275Z,34.87
2019-02-05T12:03:28.171Z,31.40
2019-02-05T12:05:56.663Z,27.47
2019-02-05T12:08:25.660Z,33.43
2019-02-05T12:10:54.246Z,36.73
2019-02-05T12:13:22.725Z,32.53
2019-02-05T12:15:51.278Z,28.63
2019-02-05T12:18:20.614Z,32.03
2019-02-05T12:20:49.760Z,30.93
2019-02-05T12:23:18.550Z,30.70
2019-02-05T12:25:47.242Z,31.97
2019-02-05T12:28:16.035Z,36.47
2019-02-05T12:30:45.685Z,33.07
2019-02-05T12:33:14.565Z,31.30
2019-02-05T12:35:43.630Z,34.23
2019-02-05T12:38:12.424Z,30.93
2019-02-05T12:40:41.012Z,32.93
2019-02-05T12:43:09.530Z,31.20
2019-02-05T12:45:38.359Z,31.43
2019-02-05T12:48:07.369Z,30.70
2019-02-05T12:50:37.180Z,34.63
2019-02-05T12:53:06.551Z,33.93
2019-02-05T12:55:36.118Z,28.37
2019-02-05T12:58:05.450Z,31.60
2019-02-05T13:00:55.995Z,28.30
2019-02-05T13:03:14.447Z,30.90
2019-02-05T13:05:44.373Z,30.67
2019-02-05T13:08:13.575Z,31.97
2019-02-05T13:10:45.348Z,27.60
2019-02-05T13:13:14.636Z,28.43
2019-02-05T13:15:43.156Z,27.50
2019-02-05T13:18:11.921Z,27.37
2019-02-05T13:20:40.716Z,25.93
2019-02-05T13:23:09.929Z,21.97
2019-02-05T13:25:39.146Z,26.87
2019-02-05T13:28:11.232Z,25.17
2019-02-05T13:30:40.544Z,26.43
2019-02-05T13:33:12.959Z,26.03
2019-02-05T13:35:41.981Z,22.03
2019-02-05T13:38:10.454Z,25.63
2019-02-05T13:40:39.227Z,22.53
2019-02-05T13:43:08.339Z,24.87
2019-02-05T13:45:39.637Z,24.63
2019-02-05T13:48:08.694Z,22.93
2019-02-05T13:50:37.691Z,27.60
2019-02-05T13:53:06.816Z,26.20
2019-02-05T13:55:39.661Z,24.63
2019-02-05T13:58:09.400Z,26.63
2019-02-05T14:00:52.958Z,22.40
2019-02-05T14:03:22.005Z,23.63
2019-02-05T14:05:50.536Z,26.70
2019-02-05T14:08:19.203Z,26.90
2019-02-05T14:10:48.946Z,24.67
2019-02-05T14:13:18.690Z,27.40
2019-02-05T14:15:51.173Z,27.77
2019-02-05T14:18:22.683Z,26.90
2019-02-05T14:20:50.390Z,29.03
2019-02-05T14:23:19.163Z,26.93
2019-02-05T14:25:47.829Z,32.20
2019-02-05T14:28:16.629Z,28.87
2019-02-05T14:30:54.500Z,30.90
2019-02-05T14:33:25.518Z,31.93
2019-02-05T14:35:54.333Z,31.30
2019-02-05T14:38:23.074Z,33.53
2019-02-05T14:40:51.683Z,35.53
2019-02-05T14:43:20.280Z,39.43
2019-02-05T14:45:49.252Z,36.23
2019-02-05T14:48:17.998Z,34.07
2019-02-05T14:50:47.287Z,36.07
2019-02-05T14:53:17.423Z,36.80
2019-02-05T14:55:46.382Z,34.47
2019-02-05T14:58:16.981Z,36.27
2019-02-05T15:00:45.824Z,39.47
2019-02-05T15:03:15.162Z,33.70
2019-02-05T15:05:45.285Z,41.57
2019-02-05T15:08:15.785Z,35.60
2019-02-05T15:10:44.617Z,38.93
2019-02-05T15:13:15.867Z,42.97
2019-02-05T15:15:43.986Z,32.03
2019-02-05T15:18:21.683Z,34.90
2019-02-05T15:20:50.941Z,39.83
2019-02-05T15:23:20.201Z,39.40
2019-02-05T15:25:48.683Z,39.13
2019-02-05T15:28:17.202Z,36.73
2019-02-05T15:30:46.267Z,40.47
2019-02-05T15:33:52.389Z,34.53
2019-02-05T15:36:26.790Z,36.33
2019-02-05T15:38:55.550Z,38.30
2019-02-05T15:41:24.245Z,47.53
2019-02-05T15:43:52.936Z,35.10
2019-02-05T15:46:21.915Z,37.40
2019-02-05T15:48:50.686Z,34.90
2019-02-05T15:51:19.304Z,42.33
2019-02-05T15:53:48.185Z,40.30
2019-02-05T15:56:16.852Z,39.93
2019-02-05T15:58:45.401Z,38.77
2019-02-05T16:01:15.428Z,34.83
2019-02-05T16:03:44.504Z,36.83
2019-02-05T16:06:13.143Z,42.27
2019-02-05T16:08:41.870Z,44.60
2019-02-05T16:11:10.633Z,40.07
2019-02-05T16:13:39.277Z,42.77
2019-02-05T16:16:07.812Z,41.60
2019-02-05T16:18:36.583Z,42.63
2019-02-05T16:21:05.179Z,44.70
2019-02-05T16:23:34.752Z,37.77
2019-02-05T16:26:04.896Z,40.57
2019-02-05T16:28:33.498Z,45.97
2019-02-05T16:31:02.414Z,44.13
2019-02-05T16:33:31.415Z,39.90
2019-02-05T16:36:00.559Z,43.77
2019-02-05T16:38:29.329Z,37.97
2019-02-05T16:40:58.009Z,38.90
2019-02-05T16:43:28.113Z,40.33
2019-02-05T16:45:56.774Z,41.80
2019-02-05T16:48:25.479Z,39.00
2019-02-05T16:50:54.351Z,43.80
2019-02-05T16:53:23.075Z,44.97
2019-02-05T16:55:51.601Z,49.37
2019-02-05T16:58:20.185Z,46.33
2019-02-05T17:00:48.907Z,37.60
2019-02-05T17:03:17.655Z,40.27
2019-02-05T17:05:47.071Z,32.67
2019-02-05T17:08:15.665Z,42.40
2019-02-05T17:10:44.261Z,37.87
2019-02-05T17:13:12.885Z,34.97
2019-02-05T17:15:41.500Z,32.33
2019-02-05T17:18:10.068Z,35.40
2019-02-05T17:20:38.964Z,42.83
2019-02-05T17:23:07.842Z,35.87
2019-02-05T17:25:36.487Z,37.03
2019-02-05T17:28:06.286Z,37.33
2019-02-05T17:30:37.197Z,39.33
2019-02-05T17:33:06.171Z,39.43
2019-02-05T17:35:35.619Z,37.37
2019-02-05T17:38:07.620Z,35.67
2019-02-05T17:40:37.185Z,37.10
2019-02-05T17:43:06.614Z,34.87
2019-02-05T17:45:38.359Z,33.53
2019-02-05T17:48:11.354Z,32.50
2019-02-05T17:50:40.529Z,33.93
2019-02-05T17:53:09.035Z,35.20
2019-02-05T17:55:37.636Z,33.30
2019-02-05T17:58:06.498Z,38.53
2019-02-05T18:00:54.118Z,32.23
2019-02-05T18:03:23.105Z,37.73
2019-02-05T18:05:51.688Z,38.10
2019-02-05T18:08:20.618Z,39.67
2019-02-05T18:10:49.247Z,39.30
2019-02-05T18:13:17.780Z,36.87
2019-02-05T18:15:46.391Z,43.90
2019-02-05T18:18:15.260Z,41.60
2019-02-05T18:20:44.295Z,38.33
2019-02-05T18:23:12.983Z,42.13
2019-02-05T18:25:41.743Z,42.20
2019-02-05T18:28:10.291Z,39.13
2019-02-05T18:30:39.019Z,40.33
2019-02-05T18:33:07.868Z,43.93
2019-02-05T18:35:36.637Z,38.33
2019-02-05T18:38:07.848Z,42.27
2019-02-05T18:40:36.533Z,39.60
2019-02-05T18:43:05.435Z,42.30
2019-02-05T18:45:34.187Z,41.93
2019-02-05T18:48:02.923Z,42.93
2019-02-05T18:50:31.619Z,38.27
2019-02-05T18:53:00.865Z,42.03
2019-02-05T18:55:30.587Z,42.97
2019-02-05T18:58:08.692Z,43.03
2019-02-05T19:00:33.406Z,44.27
2019-02-05T19:03:01.922Z,48.07
2019-02-05T19:05:30.799Z,40.93
2019-02-05T19:07:59.541Z,46.07
2019-02-05T19:10:28.489Z,44.90
2019-02-05T19:12:57.778Z,47.10
2019-02-05T19:15:32.123Z,47.33
2019-02-05T19:18:01.059Z,45.80
2019-02-05T19:20:31.074Z,47.13
2019-02-05T19:23:00.410Z,48.17
2019-02-05T19:25:42.498Z,41.83
2019-02-05T19:28:16.928Z,47.80
2019-02-05T19:30:46.223Z,49.93
2019-02-05T19:33:26.434Z,50.77
2019-02-05T19:35:45.332Z,47.60
2019-02-05T19:38:13.911Z,52.60
2019-02-05T19:40:45.078Z,48.40
2019-02-05T19:43:14.077Z,56.30
2019-02-05T19:45:55.603Z,55.00
2019-02-05T19:48:30.233Z,41.53
2019-02-05T19:50:59.142Z,42.80
2019-02-05T19:53:27.746Z,45.40
2019-02-05T19:55:57.189Z,49.07
2019-02-05T19:58:25.691Z,49.13
2019-02-05T20:00:54.723Z,48.33
2019-02-05T20:03:23.286Z,52.67
2019-02-05T20:05:51.860Z,43.07
2019-02-05T20:08:20.489Z,52.03
2019-02-05T20:10:49.145Z,46.20
2019-02-05T20:13:17.818Z,45.77
2019-02-05T20:15:46.518Z,49.57
2019-02-05T20:18:15.517Z,46.30
2019-02-05T20:20:44.537Z,51.27
2019-02-05T20:23:13.137Z,44.03
2019-02-05T20:25:42.032Z,47.37
2019-02-05T20:28:10.614Z,51.33
2019-02-05T20:30:39.423Z,56.53
2019-02-05T20:33:08.319Z,48.17
2019-02-05T20:35:36.915Z,39.80
2019-02-05T20:38:05.415Z,42.40
2019-02-05T20:40:34.999Z,45.53
2019-02-05T20:43:03.675Z,46.20
2019-02-05T20:45:32.268Z,47.73
2019-02-05T20:48:00.697Z,45.87
2019-02-05T20:50:29.346Z,45.20
2019-02-05T20:52:58.223Z,45.40
2019-02-05T20:55:26.812Z,44.30
2019-02-05T20:57:55.499Z,45.33
2019-02-05T21:00:24.071Z,40.17
2019-02-05T21:02:52.726Z,52.07
2019-02-05T21:05:21.530Z,43.93
2019-02-05T21:07:50.545Z,48.03
2019-02-05T21:10:21.750Z,49.47
2019-02-05T21:12:50.630Z,41.13
2019-02-05T21:15:20.958Z,44.57
2019-02-05T21:17:49.733Z,45.93
2019-02-05T21:20:28.922Z,38.23
2019-02-05T21:22:50.319Z,46.77
2019-02-05T21:25:19.901Z,47.00
2019-02-05T21:27:48.638Z,44.87
2019-02-05T21:30:19.266Z,46.03
2019-02-05T21:32:48.097Z,46.57
2019-02-05T21:35:16.793Z,46.40
2019-02-05T21:37:45.563Z,45.23
2019-02-05T21:40:20.020Z,43.10
2019-02-05T21:42:48.562Z,43.10
2019-02-05T21:45:20.038Z,46.20
2019-02-05T21:47:48.768Z,47.00
2019-02-05T21:50:19.341Z,47.70
2019-02-05T21:52:48.927Z,44.77
2019-02-05T21:55:18.303Z,44.40
2019-02-05T21:57:47.729Z,49.77
2019-02-05T22:00:25.783Z,49.90
2019-02-05T22:02:54.711Z,49.33
2019-02-05T22:05:23.927Z,50.67
2019-02-05T22:07:52.788Z,49.60
2019-02-05T22:10:22.053Z,48.30
2019-02-05T22:12:50.736Z,48.73
2019-02-05T22:15:20.219Z,45.80
2019-02-05T22:17:48.925Z,49.33
2019-02-05T22:20:23.510Z,43.67
2019-02-05T22:22:52.038Z,43.47
2019-02-05T22:25:24.100Z,45.90
2019-02-05T22:27:52.633Z,47.60
2019-02-05T22:30:28.356Z,43.90
2019-02-05T22:32:57.158Z,44.13
2019-02-05T22:35:25.945Z,47.63
2019-02-05T22:37:55.051Z,50.43
2019-02-05T22:40:25.457Z,46.40
2019-02-05T22:42:54.883Z,39.97
2019-02-05T22:45:26.392Z,47.10
2019-02-05T22:47:55.269Z,40.53
2019-02-05T22:50:26.227Z,47.83
2019-02-05T22:52:57.554Z,45.80
2019-02-05T22:55:26.551Z,46.27
2019-02-05T22:57:55.027Z,46.73
2019-02-05T23:01:06.888Z,41.97
2019-02-05T23:04:06.985Z,46.37
2019-02-05T23:07:05.277Z,42.40
2019-02-05T23:10:09.392Z,41.23
2019-02-05T23:13:07.705Z,45.03
2019-02-05T23:15:40.739Z,42.00
2019-02-05T23:18:09.841Z,46.50
2019-02-05T23:20:38.473Z,49.10
2019-02-05T23:23:07.156Z,42.53
2019-02-05T23:25:35.724Z,42.10
2019-02-05T23:28:05.030Z,42.37
2019-02-05T23:30:34.583Z,45.27
2019-02-05T23:33:03.307Z,44.77
2019-02-05T23:35:32.809Z,40.37
2019-02-05T23:38:02.506Z,39.50
2019-02-05T23:40:31.102Z,41.20
2019-02-05T23:42:59.707Z,39.60
2019-02-05T23:45:28.578Z,46.83
2019-02-05T23:47:57.179Z,43.03
2019-02-05T23:50:26.032Z,48.23
2019-02-05T23:52:54.556Z,36.93
2019-02-05T23:55:23.254Z,46.40
2019-02-05T23:57:51.682Z,49.27
